sensor_id;sensor_type;location;lat;lon;timestamp;temperature;humidity
9177;DHT22;4623;54.310;10.112;2022-10-16T00:01:58;14.00;99.90
9177;DHT22;4623;54.310;10.112;2022-10-16T00:04:23;14.00;99.90
9177;DHT22;4623;54.310;10.112;2022-10-16T00:06:49;13.90;99.90
9177;DHT22;4623;54.310;10.112;2022-10-16T00:09:15;13.90;99.90
9177;DHT22;4623;54.310;10.112;2022-10-16T00:11:41;13.90;99.90
9177;DHT22;4623;54.310;10.112;2022-10-16T00:14:11;13.90;99.90
9177;DHT22;4623;54.310;10.112;2022-10-16T00:16:37;13.90;99.90
9177;DHT22;4623;54.310;10.112;2022-10-16T00:19:03;13.80;99.90
9177;DHT22;4623;54.310;10.112;2022-10-16T00:21:31;13.80;99.90
9177;DHT22;4623;54.310;10.112;2022-10-16T00:24:02;13.80;99.90
9177;DHT22;4623;54.310;10.112;2022-10-16T00:26:30;13.80;99.90
9177;DHT22;4623;54.310;10.112;2022-10-16T00:28:57;13.80;99.90
9177;DHT22;4623;54.310;10.112;2022-10-16T00:31:23;13.80;99.90
9177;DHT22;4623;54.310;10.112;2022-10-16T00:33:49;13.80;99.90
9177;DHT22;4623;54.310;10.112;2022-10-16T00:36:20;13.80;99.90
9177;DHT22;4623;54.310;10.112;2022-10-16T00:38:46;13.80;99.90
9177;DHT22;4623;54.310;10.112;2022-10-16T00:41:17;13.80;99.90
9177;DHT22;4623;54.310;10.112;2022-10-16T00:43:48;13.80;99.90
9177;DHT22;4623;54.310;10.112;2022-10-16T00:49:12;13.70;99.90
9177;DHT22;4623;54.310;10.112;2022-10-16T00:51:52;13.70;99.90
9177;DHT22;4623;54.310;10.112;2022-10-16T00:54:29;13.70;99.90
9177;DHT22;4623;54.310;10.112;2022-10-16T00:56:57;13.70;99.90
9177;DHT22;4623;54.310;10.112;2022-10-16T00:59:28;13.70;99.90
9177;DHT22;4623;54.310;10.112;2022-10-16T01:01:54;13.70;99.90
9177;DHT22;4623;54.310;10.112;2022-10-16T01:04:20;13.70;99.90
9177;DHT22;4623;54.310;10.112;2022-10-16T01:20:04;13.60;99.90
9177;DHT22;4623;54.310;10.112;2022-10-16T01:25:15;13.60;99.90
9177;DHT22;4623;54.310;10.112;2022-10-16T01:27:44;13.60;99.90
9177;DHT22;4623;54.310;10.112;2022-10-16T01:30:23;13.70;99.90
9177;DHT22;4623;54.310;10.112;2022-10-16T01:33:03;13.70;99.90
9177;DHT22;4623;54.310;10.112;2022-10-16T01:35:38;13.60;99.90
9177;DHT22;4623;54.310;10.112;2022-10-16T01:38:12;13.70;99.90
9177;DHT22;4623;54.310;10.112;2022-10-16T01:40:42;13.60;99.90
9177;DHT22;4623;54.310;10.112;2022-10-16T01:43:17;13.60;99.90
9177;DHT22;4623;54.310;10.112;2022-10-16T01:45:45;13.60;99.90
9177;DHT22;4623;54.310;10.112;2022-10-16T01:48:13;13.60;99.90
9177;DHT22;4623;54.310;10.112;2022-10-16T01:50:41;13.60;99.90
9177;DHT22;4623;54.310;10.112;2022-10-16T01:53:12;13.60;99.90
9177;DHT22;4623;54.310;10.112;2022-10-16T01:55:40;13.60;99.90
9177;DHT22;4623;54.310;10.112;2022-10-16T01:58:10;13.70;99.90
9177;DHT22;4623;54.310;10.112;2022-10-16T02:00:38;13.60;99.90
9177;DHT22;4623;54.310;10.112;2022-10-16T02:03:05;13.60;99.90
9177;DHT22;4623;54.310;10.112;2022-10-16T02:05:55;13.70;99.90
9177;DHT22;4623;54.310;10.112;2022-10-16T02:08:23;13.60;99.90
9177;DHT22;4623;54.310;10.112;2022-10-16T02:10:49;13.60;99.90
9177;DHT22;4623;54.310;10.112;2022-10-16T02:13:23;13.60;99.90
9177;DHT22;4623;54.310;10.112;2022-10-16T02:15:51;13.60;99.90
9177;DHT22;4623;54.310;10.112;2022-10-16T02:18:17;13.60;99.90
9177;DHT22;4623;54.310;10.112;2022-10-16T02:20:51;13.60;99.90
9177;DHT22;4623;54.310;10.112;2022-10-16T02:23:35;13.70;99.90
9177;DHT22;4623;54.310;10.112;2022-10-16T02:26:05;13.70;99.90
9177;DHT22;4623;54.310;10.112;2022-10-16T02:28:41;13.70;99.90
9177;DHT22;4623;54.310;10.112;2022-10-16T02:31:11;13.70;99.90
9177;DHT22;4623;54.310;10.112;2022-10-16T02:33:40;13.70;99.90
9177;DHT22;4623;54.310;10.112;2022-10-16T02:36:07;13.60;99.90
9177;DHT22;4623;54.310;10.112;2022-10-16T02:38:34;13.60;99.90
9177;DHT22;4623;54.310;10.112;2022-10-16T02:41:00;13.60;99.90
9177;DHT22;4623;54.310;10.112;2022-10-16T02:43:26;13.60;99.90
9177;DHT22;4623;54.310;10.112;2022-10-16T02:45:51;13.60;99.90
9177;DHT22;4623;54.310;10.112;2022-10-16T02:48:17;13.60;99.90
9177;DHT22;4623;54.310;10.112;2022-10-16T02:50:43;13.60;99.90
9177;DHT22;4623;54.310;10.112;2022-10-16T02:53:08;13.60;99.90
9177;DHT22;4623;54.310;10.112;2022-10-16T02:55:34;13.60;99.90
9177;DHT22;4623;54.310;10.112;2022-10-16T02:58:00;13.60;99.90
9177;DHT22;4623;54.310;10.112;2022-10-16T03:00:25;13.50;99.90
9177;DHT22;4623;54.310;10.112;2022-10-16T03:02:51;13.50;99.90
9177;DHT22;4623;54.310;10.112;2022-10-16T03:05:16;13.50;99.90
9177;DHT22;4623;54.310;10.112;2022-10-16T03:07:42;13.50;99.90
9177;DHT22;4623;54.310;10.112;2022-10-16T03:10:08;13.50;99.90
9177;DHT22;4623;54.310;10.112;2022-10-16T03:12:34;13.40;99.90
9177;DHT22;4623;54.310;10.112;2022-10-16T03:15:00;13.40;99.90
9177;DHT22;4623;54.310;10.112;2022-10-16T03:17:26;13.40;99.90
9177;DHT22;4623;54.310;10.112;2022-10-16T03:19:51;13.40;99.90
9177;DHT22;4623;54.310;10.112;2022-10-16T03:22:17;13.40;99.90
9177;DHT22;4623;54.310;10.112;2022-10-16T03:24:42;13.40;99.90
9177;DHT22;4623;54.310;10.112;2022-10-16T03:27:08;13.40;99.90
9177;DHT22;4623;54.310;10.112;2022-10-16T03:29:34;13.40;99.90
9177;DHT22;4623;54.310;10.112;2022-10-16T03:32:00;13.40;99.90
9177;DHT22;4623;54.310;10.112;2022-10-16T03:34:26;13.30;99.90
9177;DHT22;4623;54.310;10.112;2022-10-16T03:36:52;13.30;99.90
9177;DHT22;4623;54.310;10.112;2022-10-16T03:39:18;13.30;99.90
9177;DHT22;4623;54.310;10.112;2022-10-16T03:41:43;13.30;99.90
9177;DHT22;4623;54.310;10.112;2022-10-16T03:44:09;13.40;99.90
9177;DHT22;4623;54.310;10.112;2022-10-16T03:46:35;13.30;99.90
9177;DHT22;4623;54.310;10.112;2022-10-16T03:49:00;13.30;99.90
9177;DHT22;4623;54.310;10.112;2022-10-16T03:51:26;13.30;99.90
9177;DHT22;4623;54.310;10.112;2022-10-16T03:53:51;13.30;99.90
9177;DHT22;4623;54.310;10.112;2022-10-16T03:56:17;13.20;99.90
9177;DHT22;4623;54.310;10.112;2022-10-16T03:58:42;13.20;99.90
9177;DHT22;4623;54.310;10.112;2022-10-16T04:01:08;13.20;99.90
9177;DHT22;4623;54.310;10.112;2022-10-16T04:03:34;13.20;99.90
9177;DHT22;4623;54.310;10.112;2022-10-16T04:05:59;13.30;99.90
9177;DHT22;4623;54.310;10.112;2022-10-16T04:08:25;13.20;99.90
9177;DHT22;4623;54.310;10.112;2022-10-16T04:10:51;13.20;99.90
9177;DHT22;4623;54.310;10.112;2022-10-16T04:13:16;13.20;99.90
9177;DHT22;4623;54.310;10.112;2022-10-16T04:15:42;13.30;99.90
9177;DHT22;4623;54.310;10.112;2022-10-16T04:18:08;13.20;99.90
9177;DHT22;4623;54.310;10.112;2022-10-16T04:20:33;13.20;99.90
9177;DHT22;4623;54.310;10.112;2022-10-16T04:22:59;13.20;99.90
9177;DHT22;4623;54.310;10.112;2022-10-16T04:25:25;13.20;99.90
9177;DHT22;4623;54.310;10.112;2022-10-16T04:27:53;13.20;99.90
9177;DHT22;4623;54.310;10.112;2022-10-16T04:30:19;13.20;99.90
9177;DHT22;4623;54.310;10.112;2022-10-16T04:32:51;13.10;99.90
9177;DHT22;4623;54.310;10.112;2022-10-16T04:35:18;13.10;99.90
9177;DHT22;4623;54.310;10.112;2022-10-16T04:37:44;13.10;99.90
9177;DHT22;4623;54.310;10.112;2022-10-16T04:40:10;13.20;99.90
9177;DHT22;4623;54.310;10.112;2022-10-16T04:42:35;13.10;99.90
9177;DHT22;4623;54.310;10.112;2022-10-16T04:45:01;13.20;99.90
9177;DHT22;4623;54.310;10.112;2022-10-16T04:47:27;13.20;99.90
9177;DHT22;4623;54.310;10.112;2022-10-16T04:49:52;13.20;99.90
9177;DHT22;4623;54.310;10.112;2022-10-16T04:52:18;13.20;99.90
9177;DHT22;4623;54.310;10.112;2022-10-16T04:54:44;13.20;99.90
9177;DHT22;4623;54.310;10.112;2022-10-16T04:57:10;13.20;99.90
9177;DHT22;4623;54.310;10.112;2022-10-16T04:59:36;13.20;99.90
9177;DHT22;4623;54.310;10.112;2022-10-16T05:02:02;13.20;99.90
9177;DHT22;4623;54.310;10.112;2022-10-16T05:04:28;13.30;99.90
9177;DHT22;4623;54.310;10.112;2022-10-16T05:06:53;13.30;99.90
9177;DHT22;4623;54.310;10.112;2022-10-16T05:09:19;13.30;99.90
9177;DHT22;4623;54.310;10.112;2022-10-16T05:11:44;13.30;99.90
9177;DHT22;4623;54.310;10.112;2022-10-16T05:14:10;13.30;99.90
9177;DHT22;4623;54.310;10.112;2022-10-16T05:16:36;13.20;99.90
9177;DHT22;4623;54.310;10.112;2022-10-16T05:19:01;13.20;99.90
9177;DHT22;4623;54.310;10.112;2022-10-16T05:21:27;13.20;99.90
9177;DHT22;4623;54.310;10.112;2022-10-16T05:23:53;13.30;99.90
9177;DHT22;4623;54.310;10.112;2022-10-16T05:26:19;13.30;99.90
9177;DHT22;4623;54.310;10.112;2022-10-16T05:28:46;13.30;99.90
9177;DHT22;4623;54.310;10.112;2022-10-16T05:31:12;13.30;99.90
9177;DHT22;4623;54.310;10.112;2022-10-16T05:33:38;13.30;99.90
9177;DHT22;4623;54.310;10.112;2022-10-16T05:36:05;13.30;99.90
9177;DHT22;4623;54.310;10.112;2022-10-16T05:38:33;13.30;99.90
9177;DHT22;4623;54.310;10.112;2022-10-16T05:40:59;13.30;99.90
9177;DHT22;4623;54.310;10.112;2022-10-16T05:43:24;13.30;99.90
9177;DHT22;4623;54.310;10.112;2022-10-16T05:45:56;13.30;99.90
9177;DHT22;4623;54.310;10.112;2022-10-16T05:48:23;13.30;99.90
9177;DHT22;4623;54.310;10.112;2022-10-16T05:50:56;13.30;99.90
9177;DHT22;4623;54.310;10.112;2022-10-16T05:53:22;13.30;99.90
9177;DHT22;4623;54.310;10.112;2022-10-16T05:55:54;13.40;99.90
9177;DHT22;4623;54.310;10.112;2022-10-16T05:58:21;13.30;99.90
9177;DHT22;4623;54.310;10.112;2022-10-16T06:01:04;13.30;99.90
9177;DHT22;4623;54.310;10.112;2022-10-16T06:03:30;13.30;99.90
9177;DHT22;4623;54.310;10.112;2022-10-16T06:05:56;13.30;99.90
9177;DHT22;4623;54.310;10.112;2022-10-16T06:08:22;13.30;99.90
9177;DHT22;4623;54.310;10.112;2022-10-16T06:10:49;13.40;99.90
9177;DHT22;4623;54.310;10.112;2022-10-16T06:13:25;13.40;99.90
9177;DHT22;4623;54.310;10.112;2022-10-16T06:15:50;13.40;99.90
9177;DHT22;4623;54.310;10.112;2022-10-16T06:18:16;13.40;99.90
9177;DHT22;4623;54.310;10.112;2022-10-16T06:20:41;13.40;99.90
9177;DHT22;4623;54.310;10.112;2022-10-16T06:23:07;13.40;99.90
9177;DHT22;4623;54.310;10.112;2022-10-16T06:25:33;13.40;99.90
9177;DHT22;4623;54.310;10.112;2022-10-16T06:27:58;13.40;99.90
9177;DHT22;4623;54.310;10.112;2022-10-16T06:30:24;13.50;99.90
9177;DHT22;4623;54.310;10.112;2022-10-16T06:32:50;13.50;99.90
9177;DHT22;4623;54.310;10.112;2022-10-16T06:35:15;13.50;99.90
9177;DHT22;4623;54.310;10.112;2022-10-16T06:37:41;13.50;99.90
9177;DHT22;4623;54.310;10.112;2022-10-16T06:40:07;13.50;99.90
9177;DHT22;4623;54.310;10.112;2022-10-16T06:42:33;13.60;99.90
9177;DHT22;4623;54.310;10.112;2022-10-16T06:44:59;13.60;99.90
9177;DHT22;4623;54.310;10.112;2022-10-16T06:47:24;13.70;99.90
9177;DHT22;4623;54.310;10.112;2022-10-16T06:49:50;13.70;99.90
9177;DHT22;4623;54.310;10.112;2022-10-16T06:52:16;13.70;99.90
9177;DHT22;4623;54.310;10.112;2022-10-16T06:54:41;13.70;99.90
9177;DHT22;4623;54.310;10.112;2022-10-16T06:57:07;13.70;99.90
9177;DHT22;4623;54.310;10.112;2022-10-16T06:59:32;13.70;99.90
9177;DHT22;4623;54.310;10.112;2022-10-16T07:01:58;13.70;99.90
9177;DHT22;4623;54.310;10.112;2022-10-16T07:04:23;13.80;99.90
9177;DHT22;4623;54.310;10.112;2022-10-16T07:06:49;13.80;99.90
9177;DHT22;4623;54.310;10.112;2022-10-16T07:09:16;13.80;99.90
9177;DHT22;4623;54.310;10.112;2022-10-16T07:11:42;13.80;99.90
9177;DHT22;4623;54.310;10.112;2022-10-16T07:14:19;13.90;99.90
9177;DHT22;4623;54.310;10.112;2022-10-16T07:16:44;13.90;99.90
9177;DHT22;4623;54.310;10.112;2022-10-16T07:19:10;14.00;99.90
9177;DHT22;4623;54.310;10.112;2022-10-16T07:21:37;14.00;99.90
9177;DHT22;4623;54.310;10.112;2022-10-16T07:24:05;14.10;99.90
9177;DHT22;4623;54.310;10.112;2022-10-16T07:26:34;14.20;99.90
9177;DHT22;4623;54.310;10.112;2022-10-16T07:28:59;14.20;99.90
9177;DHT22;4623;54.310;10.112;2022-10-16T07:31:26;14.30;99.90
9177;DHT22;4623;54.310;10.112;2022-10-16T07:33:52;14.30;99.90
9177;DHT22;4623;54.310;10.112;2022-10-16T07:36:19;14.30;99.90
9177;DHT22;4623;54.310;10.112;2022-10-16T07:38:46;14.30;99.90
9177;DHT22;4623;54.310;10.112;2022-10-16T07:41:17;14.40;99.90
9177;DHT22;4623;54.310;10.112;2022-10-16T07:43:51;14.40;99.90
9177;DHT22;4623;54.310;10.112;2022-10-16T07:46:18;14.30;99.90
9177;DHT22;4623;54.310;10.112;2022-10-16T07:48:44;14.30;99.90
9177;DHT22;4623;54.310;10.112;2022-10-16T07:51:22;14.30;99.90
9177;DHT22;4623;54.310;10.112;2022-10-16T07:53:49;14.40;99.90
9177;DHT22;4623;54.310;10.112;2022-10-16T07:56:16;14.40;99.90
9177;DHT22;4623;54.310;10.112;2022-10-16T07:58:42;14.50;99.90
9177;DHT22;4623;54.310;10.112;2022-10-16T08:01:10;14.80;99.90
9177;DHT22;4623;54.310;10.112;2022-10-16T08:03:36;15.00;99.90
9177;DHT22;4623;54.310;10.112;2022-10-16T08:06:03;15.10;99.90
9177;DHT22;4623;54.310;10.112;2022-10-16T08:08:29;15.20;99.90
9177;DHT22;4623;54.310;10.112;2022-10-16T08:10:55;15.30;99.90
9177;DHT22;4623;54.310;10.112;2022-10-16T08:13:21;15.40;99.90
9177;DHT22;4623;54.310;10.112;2022-10-16T08:15:47;15.70;99.90
9177;DHT22;4623;54.310;10.112;2022-10-16T08:18:14;16.20;99.90
9177;DHT22;4623;54.310;10.112;2022-10-16T08:20:41;16.60;99.90
9177;DHT22;4623;54.310;10.112;2022-10-16T08:23:07;16.80;99.90
9177;DHT22;4623;54.310;10.112;2022-10-16T08:25:35;17.30;99.90
9177;DHT22;4623;54.310;10.112;2022-10-16T08:28:04;17.80;99.90
9177;DHT22;4623;54.310;10.112;2022-10-16T08:30:31;18.30;99.90
9177;DHT22;4623;54.310;10.112;2022-10-16T08:32:56;18.90;99.90
9177;DHT22;4623;54.310;10.112;2022-10-16T08:35:23;19.10;99.90
9177;DHT22;4623;54.310;10.112;2022-10-16T08:37:49;19.20;99.90
9177;DHT22;4623;54.310;10.112;2022-10-16T08:42:59;19.60;99.90
9177;DHT22;4623;54.310;10.112;2022-10-16T08:51:04;19.90;99.90
9177;DHT22;4623;54.310;10.112;2022-10-16T08:53:45;20.00;99.90
9177;DHT22;4623;54.310;10.112;2022-10-16T08:56:12;20.50;99.90
9177;DHT22;4623;54.310;10.112;2022-10-16T08:58:37;21.20;99.90
9177;DHT22;4623;54.310;10.112;2022-10-16T09:01:13;21.60;99.90
9177;DHT22;4623;54.310;10.112;2022-10-16T09:04:07;21.60;99.90
9177;DHT22;4623;54.310;10.112;2022-10-16T09:09:22;22.10;99.90
9177;DHT22;4623;54.310;10.112;2022-10-16T09:11:59;22.30;99.90
9177;DHT22;4623;54.310;10.112;2022-10-16T09:16:57;22.60;99.90
9177;DHT22;4623;54.310;10.112;2022-10-16T09:19:41;22.60;99.90
9177;DHT22;4623;54.310;10.112;2022-10-16T09:22:14;22.70;99.90
9177;DHT22;4623;54.310;10.112;2022-10-16T09:24:40;23.00;99.90
9177;DHT22;4623;54.310;10.112;2022-10-16T09:27:13;23.20;99.90
9177;DHT22;4623;54.310;10.112;2022-10-16T09:29:40;23.50;99.90
9177;DHT22;4623;54.310;10.112;2022-10-16T09:32:19;23.70;99.90
9177;DHT22;4623;54.310;10.112;2022-10-16T09:34:49;24.10;95.00
9177;DHT22;4623;54.310;10.112;2022-10-16T09:37:21;24.00;98.30
9177;DHT22;4623;54.310;10.112;2022-10-16T09:39:53;23.70;94.80
9177;DHT22;4623;54.310;10.112;2022-10-16T09:42:21;23.70;93.50
9177;DHT22;4623;54.310;10.112;2022-10-16T09:44:51;24.00;93.60
9177;DHT22;4623;54.310;10.112;2022-10-16T09:47:21;24.80;93.70
9177;DHT22;4623;54.310;10.112;2022-10-16T09:50:03;24.00;93.60
9177;DHT22;4623;54.310;10.112;2022-10-16T09:52:31;23.10;94.50
9177;DHT22;4623;54.310;10.112;2022-10-16T09:54:59;22.60;97.30
9177;DHT22;4623;54.310;10.112;2022-10-16T09:57:26;21.60;99.90
9177;DHT22;4623;54.310;10.112;2022-10-16T09:59:53;21.30;99.90
9177;DHT22;4623;54.310;10.112;2022-10-16T10:04:53;20.70;99.90
9177;DHT22;4623;54.310;10.112;2022-10-16T10:07:26;20.40;99.90
9177;DHT22;4623;54.310;10.112;2022-10-16T10:09:54;19.80;99.90
9177;DHT22;4623;54.310;10.112;2022-10-16T10:12:21;19.50;99.90
9177;DHT22;4623;54.310;10.112;2022-10-16T10:14:52;19.30;99.90
9177;DHT22;4623;54.310;10.112;2022-10-16T10:17:24;19.10;99.90
9177;DHT22;4623;54.310;10.112;2022-10-16T10:22:27;18.90;99.90
9177;DHT22;4623;54.310;10.112;2022-10-16T10:30:19;19.80;99.90
9177;DHT22;4623;54.310;10.112;2022-10-16T10:35:22;21.80;99.90
9177;DHT22;4623;54.310;10.112;2022-10-16T10:40:47;22.60;99.90
9177;DHT22;4623;54.310;10.112;2022-10-16T10:43:38;22.40;99.90
9177;DHT22;4623;54.310;10.112;2022-10-16T10:46:12;22.20;99.90
9177;DHT22;4623;54.310;10.112;2022-10-16T10:48:49;21.80;99.90
9177;DHT22;4623;54.310;10.112;2022-10-16T10:54:10;22.50;99.90
9177;DHT22;4623;54.310;10.112;2022-10-16T10:56:56;22.50;99.90
9177;DHT22;4623;54.310;10.112;2022-10-16T11:07:49;22.50;98.20
9177;DHT22;4623;54.310;10.112;2022-10-16T11:10:23;22.30;99.70
9177;DHT22;4623;54.310;10.112;2022-10-16T11:15:47;21.40;99.90
9177;DHT22;4623;54.310;10.112;2022-10-16T11:18:20;20.90;99.90
9177;DHT22;4623;54.310;10.112;2022-10-16T11:20:53;20.50;99.90
9177;DHT22;4623;54.310;10.112;2022-10-16T11:25:57;20.80;99.90
9177;DHT22;4623;54.310;10.112;2022-10-16T11:28:27;21.00;99.90
9177;DHT22;4623;54.310;10.112;2022-10-16T11:31:11;20.70;99.90
9177;DHT22;4623;54.310;10.112;2022-10-16T11:33:51;20.80;99.90
9177;DHT22;4623;54.310;10.112;2022-10-16T11:36:39;21.20;99.90
9177;DHT22;4623;54.310;10.112;2022-10-16T11:39:26;22.60;99.90
9177;DHT22;4623;54.310;10.112;2022-10-16T11:49:34;23.90;87.80
9177;DHT22;4623;54.310;10.112;2022-10-16T11:52:32;24.20;90.90
9177;DHT22;4623;54.310;10.112;2022-10-16T11:57:49;25.80;74.60
9177;DHT22;4623;54.310;10.112;2022-10-16T12:00:31;26.20;66.50
9177;DHT22;4623;54.310;10.112;2022-10-16T12:03:09;25.70;63.40
9177;DHT22;4623;54.310;10.112;2022-10-16T12:08:15;24.80;66.60
9177;DHT22;4623;54.310;10.112;2022-10-16T12:10:44;23.90;71.40
9177;DHT22;4623;54.310;10.112;2022-10-16T12:13:39;22.60;78.40
9177;DHT22;4623;54.310;10.112;2022-10-16T12:18:38;21.40;92.20
9177;DHT22;4623;54.310;10.112;2022-10-16T12:21:04;21.80;91.50
9177;DHT22;4623;54.310;10.112;2022-10-16T12:23:38;21.90;90.00
9177;DHT22;4623;54.310;10.112;2022-10-16T12:26:11;21.70;91.60
9177;DHT22;4623;54.310;10.112;2022-10-16T12:28:37;21.80;93.20
9177;DHT22;4623;54.310;10.112;2022-10-16T12:31:09;21.80;93.20
9177;DHT22;4623;54.310;10.112;2022-10-16T12:33:37;22.00;93.30
9177;DHT22;4623;54.310;10.112;2022-10-16T12:36:14;21.90;92.40
9177;DHT22;4623;54.310;10.112;2022-10-16T12:38:48;22.00;91.90
9177;DHT22;4623;54.310;10.112;2022-10-16T12:41:34;21.50;92.70
9177;DHT22;4623;54.310;10.112;2022-10-16T12:44:01;21.30;94.70
9177;DHT22;4623;54.310;10.112;2022-10-16T12:49:22;21.70;88.90
9177;DHT22;4623;54.310;10.112;2022-10-16T12:51:49;21.80;90.40
9177;DHT22;4623;54.310;10.112;2022-10-16T13:17:03;21.80;87.70
9177;DHT22;4623;54.310;10.112;2022-10-16T13:28:01;22.00;86.40
9177;DHT22;4623;54.310;10.112;2022-10-16T13:30:29;22.00;85.10
9177;DHT22;4623;54.310;10.112;2022-10-16T13:33:06;22.60;88.10
9177;DHT22;4623;54.310;10.112;2022-10-16T13:35:34;23.30;86.00
9177;DHT22;4623;54.310;10.112;2022-10-16T13:38:06;23.20;82.00
9177;DHT22;4623;54.310;10.112;2022-10-16T13:40:36;23.30;79.10
9177;DHT22;4623;54.310;10.112;2022-10-16T13:43:02;23.40;75.90
9177;DHT22;4623;54.310;10.112;2022-10-16T13:45:27;23.30;67.90
9177;DHT22;4623;54.310;10.112;2022-10-16T13:48:11;23.00;68.80
9177;DHT22;4623;54.310;10.112;2022-10-16T13:50:38;23.60;68.60
9177;DHT22;4623;54.310;10.112;2022-10-16T13:53:13;24.60;68.40
9177;DHT22;4623;54.310;10.112;2022-10-16T13:55:40;24.20;62.50
9177;DHT22;4623;54.310;10.112;2022-10-16T13:58:12;23.90;64.00
9177;DHT22;4623;54.310;10.112;2022-10-16T14:00:38;23.20;64.10
9177;DHT22;4623;54.310;10.112;2022-10-16T14:03:12;22.30;69.10
9177;DHT22;4623;54.310;10.112;2022-10-16T14:05:52;21.40;75.00
9177;DHT22;4623;54.310;10.112;2022-10-16T14:08:18;20.80;84.30
9177;DHT22;4623;54.310;10.112;2022-10-16T14:10:48;20.50;89.80
9177;DHT22;4623;54.310;10.112;2022-10-16T14:13:18;20.30;91.60
9177;DHT22;4623;54.310;10.112;2022-10-16T14:15:49;19.70;93.10
9177;DHT22;4623;54.310;10.112;2022-10-16T14:18:22;19.50;96.30
9177;DHT22;4623;54.310;10.112;2022-10-16T14:20:49;19.30;97.60
9177;DHT22;4623;54.310;10.112;2022-10-16T14:23:30;19.00;99.80
9177;DHT22;4623;54.310;10.112;2022-10-16T14:28:36;18.60;99.90
9177;DHT22;4623;54.310;10.112;2022-10-16T14:31:17;18.40;99.90
9177;DHT22;4623;54.310;10.112;2022-10-16T14:33:48;18.30;99.90
9177;DHT22;4623;54.310;10.112;2022-10-16T14:36:15;18.20;99.90
9177;DHT22;4623;54.310;10.112;2022-10-16T14:41:15;18.10;99.90
9177;DHT22;4623;54.310;10.112;2022-10-16T14:43:42;18.10;99.90
9177;DHT22;4623;54.310;10.112;2022-10-16T14:46:16;18.10;99.90
9177;DHT22;4623;54.310;10.112;2022-10-16T14:48:45;18.10;99.90
9177;DHT22;4623;54.310;10.112;2022-10-16T14:51:14;18.00;99.90
9177;DHT22;4623;54.310;10.112;2022-10-16T14:53:40;17.80;99.90
9177;DHT22;4623;54.310;10.112;2022-10-16T14:56:17;17.90;99.90
9177;DHT22;4623;54.310;10.112;2022-10-16T14:58:44;17.90;99.90
9177;DHT22;4623;54.310;10.112;2022-10-16T15:01:10;17.80;99.90
9177;DHT22;4623;54.310;10.112;2022-10-16T15:03:39;17.80;99.90
9177;DHT22;4623;54.310;10.112;2022-10-16T15:06:13;17.80;99.90
9177;DHT22;4623;54.310;10.112;2022-10-16T15:08:39;17.80;99.90
9177;DHT22;4623;54.310;10.112;2022-10-16T15:11:17;17.90;99.90
9177;DHT22;4623;54.310;10.112;2022-10-16T15:13:43;17.80;99.90
9177;DHT22;4623;54.310;10.112;2022-10-16T15:16:16;17.60;99.90
9177;DHT22;4623;54.310;10.112;2022-10-16T15:18:42;17.50;99.90
9177;DHT22;4623;54.310;10.112;2022-10-16T15:21:23;17.50;99.90
9177;DHT22;4623;54.310;10.112;2022-10-16T15:23:49;17.60;99.90
9177;DHT22;4623;54.310;10.112;2022-10-16T15:26:16;17.50;99.90
9177;DHT22;4623;54.310;10.112;2022-10-16T15:28:41;17.40;99.90
9177;DHT22;4623;54.310;10.112;2022-10-16T15:31:07;17.20;99.90
9177;DHT22;4623;54.310;10.112;2022-10-16T15:33:33;17.10;99.90
9177;DHT22;4623;54.310;10.112;2022-10-16T15:36:00;17.00;99.90
9177;DHT22;4623;54.310;10.112;2022-10-16T15:38:27;16.90;99.90
9177;DHT22;4623;54.310;10.112;2022-10-16T15:40:53;16.70;99.90
9177;DHT22;4623;54.310;10.112;2022-10-16T15:43:19;16.70;99.90
9177;DHT22;4623;54.310;10.112;2022-10-16T15:46:05;16.70;99.90
9177;DHT22;4623;54.310;10.112;2022-10-16T15:48:32;16.70;99.90
9177;DHT22;4623;54.310;10.112;2022-10-16T15:50:57;16.60;99.90
9177;DHT22;4623;54.310;10.112;2022-10-16T15:53:23;16.50;99.90
9177;DHT22;4623;54.310;10.112;2022-10-16T15:55:49;16.60;99.90
9177;DHT22;4623;54.310;10.112;2022-10-16T15:58:14;16.60;99.90
9177;DHT22;4623;54.310;10.112;2022-10-16T16:00:40;16.60;99.90
9177;DHT22;4623;54.310;10.112;2022-10-16T16:03:06;16.50;99.90
9177;DHT22;4623;54.310;10.112;2022-10-16T16:05:31;16.40;99.90
9177;DHT22;4623;54.310;10.112;2022-10-16T16:07:58;16.30;99.90
9177;DHT22;4623;54.310;10.112;2022-10-16T16:10:24;16.30;99.90
9177;DHT22;4623;54.310;10.112;2022-10-16T16:12:50;16.30;99.90
9177;DHT22;4623;54.310;10.112;2022-10-16T16:15:19;16.20;99.90
9177;DHT22;4623;54.310;10.112;2022-10-16T16:17:45;16.20;99.90
9177;DHT22;4623;54.310;10.112;2022-10-16T16:20:11;16.20;99.90
9177;DHT22;4623;54.310;10.112;2022-10-16T16:22:37;16.10;99.90
9177;DHT22;4623;54.310;10.112;2022-10-16T16:25:02;16.10;99.90
9177;DHT22;4623;54.310;10.112;2022-10-16T16:27:28;16.20;99.90
9177;DHT22;4623;54.310;10.112;2022-10-16T16:29:55;16.20;99.90
9177;DHT22;4623;54.310;10.112;2022-10-16T16:32:21;16.10;99.90
9177;DHT22;4623;54.310;10.112;2022-10-16T16:34:47;16.10;99.90
9177;DHT22;4623;54.310;10.112;2022-10-16T16:37:13;16.10;99.90
9177;DHT22;4623;54.310;10.112;2022-10-16T16:39:38;16.20;99.90
9177;DHT22;4623;54.310;10.112;2022-10-16T16:42:04;16.20;99.90
9177;DHT22;4623;54.310;10.112;2022-10-16T16:44:31;16.20;99.90
9177;DHT22;4623;54.310;10.112;2022-10-16T16:46:57;16.10;99.90
9177;DHT22;4623;54.310;10.112;2022-10-16T16:49:23;16.10;99.90
9177;DHT22;4623;54.310;10.112;2022-10-16T16:51:48;16.00;99.90
9177;DHT22;4623;54.310;10.112;2022-10-16T16:54:14;15.90;99.90
9177;DHT22;4623;54.310;10.112;2022-10-16T16:56:40;15.80;99.90
9177;DHT22;4623;54.310;10.112;2022-10-16T16:59:16;15.80;99.90
9177;DHT22;4623;54.310;10.112;2022-10-16T17:01:43;15.70;99.90
9177;DHT22;4623;54.310;10.112;2022-10-16T17:04:09;15.60;99.90
9177;DHT22;4623;54.310;10.112;2022-10-16T17:06:36;15.60;99.90
9177;DHT22;4623;54.310;10.112;2022-10-16T17:09:03;15.50;99.90
9177;DHT22;4623;54.310;10.112;2022-10-16T17:11:29;15.50;99.90
9177;DHT22;4623;54.310;10.112;2022-10-16T17:13:56;15.50;99.90
9177;DHT22;4623;54.310;10.112;2022-10-16T17:16:26;15.50;99.90
9177;DHT22;4623;54.310;10.112;2022-10-16T17:18:53;15.40;99.90
9177;DHT22;4623;54.310;10.112;2022-10-16T17:21:19;15.30;99.90
9177;DHT22;4623;54.310;10.112;2022-10-16T17:23:45;15.30;99.90
9177;DHT22;4623;54.310;10.112;2022-10-16T17:26:16;15.20;99.90
9177;DHT22;4623;54.310;10.112;2022-10-16T17:28:42;15.20;99.90
9177;DHT22;4623;54.310;10.112;2022-10-16T17:31:15;15.10;99.90
9177;DHT22;4623;54.310;10.112;2022-10-16T17:33:41;15.00;99.90
9177;DHT22;4623;54.310;10.112;2022-10-16T17:36:07;14.90;99.90
9177;DHT22;4623;54.310;10.112;2022-10-16T17:38:33;14.90;99.90
9177;DHT22;4623;54.310;10.112;2022-10-16T17:41:08;14.80;99.90
9177;DHT22;4623;54.310;10.112;2022-10-16T17:43:34;14.80;99.90
9177;DHT22;4623;54.310;10.112;2022-10-16T17:46:02;14.80;99.90
9177;DHT22;4623;54.310;10.112;2022-10-16T17:48:27;14.70;99.90
9177;DHT22;4623;54.310;10.112;2022-10-16T17:50:53;14.70;99.90
9177;DHT22;4623;54.310;10.112;2022-10-16T17:53:18;14.60;99.90
9177;DHT22;4623;54.310;10.112;2022-10-16T17:55:44;14.60;99.90